CheckWX is a tool to help pilots better visualize weather data.  It is not intended as a substitute for an official pre-flight weather briefing.

22:54:10 UTC

GMTN METAR
Saniat Rmel Airport
Morocco
Current

54 mins ago

GMTN 242200Z 09010KT 9999 BKN016 20/18 Q1023 NOSIG
Observed
May-24 @ 22:00 UTC
Wind
  • 090° at 10 KTS
Visibility
10,000+ meters
Flight Rules
MVFR
Cloud Levels
  • Broken at 1,600' AGL
Temperature
20°C / 68°F
Dewpoint
18°C / 64°F
Humidity
88%
Altimeter
30.21" Hg
Pressure
1022.92 hPa
Previous

2 hours ago

GMTN 242100Z 10011KT 070V130 9999 SCT013 BKN020 20/18 Q1023 NOSIG
Observed
May-24 @ 21:00 UTC
Wind
  • 100° at 11 KTS
Visibility
10,000+ meters
Flight Rules
MVFR
Cloud Levels
  • Scattered at 1,300' AGL
  • Broken at 2,000' AGL
Temperature
20°C / 68°F
Dewpoint
18°C / 64°F
Humidity
88%
Altimeter
30.21" Hg
Pressure
1022.92 hPa
Previous

3 hours ago

GMTN 242000Z 10011KT 9999 SCT013 BKN020 21/19 Q1023 NOSIG
Observed
May-24 @ 20:00 UTC
Wind
  • 100° at 11 KTS
Visibility
10,000+ meters
Flight Rules
MVFR
Cloud Levels
  • Scattered at 1,300' AGL
  • Broken at 2,000' AGL
Temperature
21°C / 70°F
Dewpoint
19°C / 66°F
Humidity
88%
Altimeter
30.21" Hg
Pressure
1022.92 hPa